createdAt,value
2019-03-08T00:02:29.339Z,95.20
2019-03-08T00:05:02.291Z,95.00
2019-03-08T00:07:35.105Z,95.10
2019-03-08T00:10:08.720Z,95.30
2019-03-08T00:12:41.700Z,95.20
2019-03-08T00:15:14.900Z,95.10
2019-03-08T00:17:47.686Z,95.30
2019-03-08T00:20:20.508Z,95.00
2019-03-08T00:22:53.272Z,95.20
2019-03-08T00:25:26.355Z,95.90
2019-03-08T00:27:59.212Z,96.10
2019-03-08T00:30:32.304Z,96.50
2019-03-08T00:33:05.072Z,96.40
2019-03-08T00:35:37.977Z,96.40
2019-03-08T00:38:10.984Z,96.20
2019-03-08T00:40:43.757Z,95.70
2019-03-08T00:43:17.799Z,95.70
2019-03-08T00:45:50.580Z,96.20
2019-03-08T00:48:24.949Z,96.40
2019-03-08T00:50:57.755Z,96.90
2019-03-08T00:53:30.832Z,96.00
2019-03-08T00:56:05.692Z,96.30
2019-03-08T00:58:38.740Z,96.40
2019-03-08T01:01:11.563Z,96.30
2019-03-08T01:03:44.477Z,96.00
2019-03-08T01:06:17.445Z,96.30
2019-03-08T01:08:50.002Z,95.60
2019-03-08T01:11:22.820Z,96.00
2019-03-08T01:13:55.758Z,96.20
2019-03-08T01:16:28.690Z,95.90
2019-03-08T01:19:01.492Z,95.90
2019-03-08T01:21:34.167Z,95.60
2019-03-08T01:24:06.812Z,95.40
2019-03-08T01:26:43.511Z,96.00
2019-03-08T01:29:16.401Z,96.00
2019-03-08T01:31:49.141Z,96.30
2019-03-08T01:34:22.145Z,96.70
2019-03-08T01:36:54.994Z,96.50
2019-03-08T01:39:27.757Z,96.50
2019-03-08T01:42:00.597Z,96.70
2019-03-08T01:44:33.939Z,96.30
2019-03-08T01:47:06.990Z,96.30
2019-03-08T01:49:39.548Z,96.10
2019-03-08T01:52:12.324Z,96.10
2019-03-08T01:54:45.037Z,96.20
2019-03-08T01:57:17.974Z,96.30
2019-03-08T01:59:50.798Z,96.20
2019-03-08T02:02:23.480Z,96.30
2019-03-08T02:04:56.390Z,96.70
2019-03-08T02:07:29.327Z,96.20
2019-03-08T02:10:02.296Z,96.30
2019-03-08T02:12:35.132Z,96.30
2019-03-08T02:15:11.073Z,96.00
2019-03-08T02:17:44.971Z,96.00
2019-03-08T02:20:20.107Z,96.30
2019-03-08T02:22:53.150Z,96.40
2019-03-08T02:25:25.843Z,96.40
2019-03-08T02:27:58.612Z,96.50
2019-03-08T02:30:31.624Z,96.60
2019-03-08T02:33:04.606Z,96.60
2019-03-08T02:35:37.485Z,96.80
2019-03-08T02:38:10.314Z,96.90
2019-03-08T02:40:43.168Z,96.60
2019-03-08T02:43:19.277Z,96.70
2019-03-08T02:45:53.156Z,96.60
2019-03-08T02:48:25.776Z,96.60
2019-03-08T02:50:58.765Z,97.00
2019-03-08T02:53:31.461Z,96.90
2019-03-08T02:56:04.262Z,97.00
2019-03-08T02:58:37.133Z,96.90
2019-03-08T03:01:10.153Z,96.90
2019-03-08T03:03:44.012Z,97.30
2019-03-08T03:06:17.086Z,97.00
2019-03-08T03:08:49.810Z,97.10
2019-03-08T03:11:22.802Z,97.20
2019-03-08T03:13:58.503Z,97.60
2019-03-08T03:16:31.585Z,97.20
2019-03-08T03:19:04.829Z,97.60
2019-03-08T03:21:39.184Z,97.40
2019-03-08T03:24:12.060Z,97.10
2019-03-08T03:26:45.202Z,97.20
2019-03-08T03:29:39.905Z,97.20
2019-03-08T03:32:14.017Z,97.40
2019-03-08T03:34:46.856Z,97.30
2019-03-08T03:37:19.997Z,97.20
2019-03-08T03:39:52.939Z,97.40
2019-03-08T03:42:26.124Z,97.50
2019-03-08T03:44:58.857Z,97.60
2019-03-08T03:47:33.275Z,97.70
2019-03-08T03:50:07.509Z,97.60
2019-03-08T03:52:40.890Z,97.70
2019-03-08T03:55:17.785Z,97.70
2019-03-08T03:57:51.294Z,97.90
2019-03-08T04:00:24.615Z,97.70
2019-03-08T04:02:57.924Z,97.90
2019-03-08T04:05:30.885Z,97.70
2019-03-08T04:08:04.051Z,98.00
2019-03-08T04:10:36.859Z,97.80
2019-03-08T04:13:09.584Z,98.10
2019-03-08T04:15:42.467Z,98.10
2019-03-08T04:18:15.627Z,97.70
2019-03-08T04:20:50.791Z,97.60
2019-03-08T04:23:23.841Z,98.00
2019-03-08T04:25:56.840Z,98.10
2019-03-08T04:28:29.850Z,98.30
2019-03-08T04:31:02.809Z,98.20
2019-03-08T04:33:35.891Z,98.30
2019-03-08T04:36:09.163Z,98.50
2019-03-08T04:38:42.369Z,98.60
2019-03-08T04:41:15.541Z,98.70
2019-03-08T04:43:48.583Z,98.90
2019-03-08T04:46:21.695Z,98.90
2019-03-08T04:48:54.721Z,99.00
2019-03-08T04:51:27.852Z,99.10
2019-03-08T04:54:00.689Z,98.90
2019-03-08T04:56:33.533Z,98.90
2019-03-08T04:59:06.913Z,98.90
2019-03-08T05:01:41.083Z,98.60
2019-03-08T05:04:14.534Z,98.50
2019-03-08T05:06:47.429Z,98.50
2019-03-08T05:09:23.558Z,98.70
2019-03-08T05:11:57.775Z,99.00
2019-03-08T05:14:30.834Z,99.00
2019-03-08T05:17:04.040Z,99.00
2019-03-08T05:19:37.775Z,98.70
2019-03-08T05:22:10.809Z,98.60
2019-03-08T05:24:43.857Z,98.60
2019-03-08T05:27:17.336Z,98.70
2019-03-08T05:29:50.498Z,98.70
2019-03-08T05:32:23.431Z,98.90
2019-03-08T05:34:56.702Z,98.90
2019-03-08T05:37:29.805Z,98.80
2019-03-08T05:40:02.993Z,98.60
2019-03-08T05:42:36.227Z,98.30
2019-03-08T05:45:10.188Z,98.10
2019-03-08T05:47:43.265Z,98.10
2019-03-08T05:50:17.903Z,97.60
2019-03-08T05:52:50.774Z,97.70
2019-03-08T05:55:23.824Z,97.50
2019-03-08T05:57:57.064Z,97.00
2019-03-08T06:00:32.945Z,96.60
2019-03-08T06:03:06.613Z,96.20
2019-03-08T06:05:46.249Z,95.60
2019-03-08T06:08:21.733Z,95.10
2019-03-08T06:10:57.993Z,94.60
2019-03-08T06:13:31.344Z,94.90
2019-03-08T06:16:04.747Z,94.40
2019-03-08T06:18:37.929Z,94.20
2019-03-08T06:21:11.379Z,94.10
2019-03-08T06:23:44.678Z,94.10
2019-03-08T06:26:17.575Z,94.00
2019-03-08T06:28:53.717Z,94.10
2019-03-08T06:31:28.199Z,93.80
2019-03-08T06:34:01.334Z,93.70
2019-03-08T06:36:34.901Z,93.50
2019-03-08T06:39:09.422Z,93.40
2019-03-08T06:41:42.589Z,93.30
2019-03-08T06:44:15.692Z,92.40
2019-03-08T06:46:48.772Z,91.70
2019-03-08T06:49:21.946Z,91.10
2019-03-08T06:51:55.391Z,91.10
2019-03-08T06:54:28.642Z,86.50
2019-03-08T06:57:02.258Z,84.40
2019-03-08T06:59:49.171Z,82.50
2019-03-08T07:02:22.654Z,81.70
2019-03-08T07:04:56.197Z,80.90
2019-03-08T07:07:29.512Z,78.50
2019-03-08T07:10:03.238Z,78.90
2019-03-08T07:12:36.514Z,76.40
2019-03-08T07:15:10.195Z,75.80
2019-03-08T07:17:44.022Z,75.40
2019-03-08T07:20:29.343Z,74.70
2019-03-08T07:23:27.600Z,73.20
2019-03-08T07:26:13.022Z,73.50
2019-03-08T07:29:11.073Z,72.20
2019-03-08T07:32:02.437Z,71.20
2019-03-08T07:34:53.085Z,71.50
2019-03-08T07:37:43.687Z,71.10
2019-03-08T07:40:35.895Z,70.00
2019-03-08T07:43:24.317Z,68.30
2019-03-08T07:46:19.121Z,65.60
2019-03-08T07:49:29.370Z,64.80
2019-03-08T07:52:31.114Z,63.00
2019-03-08T07:55:14.772Z,63.60
2019-03-08T07:57:59.008Z,64.80
2019-03-08T08:00:51.543Z,64.10
2019-03-08T08:03:29.483Z,63.20
2019-03-08T08:06:12.685Z,62.50
2019-03-08T08:09:13.618Z,62.40
2019-03-08T08:12:14.826Z,62.50
2019-03-08T08:15:22.269Z,63.00
2019-03-08T08:18:17.479Z,62.60
2019-03-08T08:21:09.905Z,62.20
2019-03-08T08:24:00.431Z,61.70
2019-03-08T08:26:49.965Z,60.40
2019-03-08T08:29:50.204Z,59.00
2019-03-08T08:32:48.338Z,57.70
2019-03-08T08:35:39.572Z,57.60
2019-03-08T08:38:49.983Z,57.20
2019-03-08T08:41:41.486Z,56.70
2019-03-08T08:44:32.503Z,57.70
2019-03-08T08:47:36.594Z,57.90
2019-03-08T08:50:44.591Z,56.70
2019-03-08T08:53:29.253Z,56.50
2019-03-08T08:56:21.053Z,56.30
2019-03-08T08:59:04.410Z,55.70
2019-03-08T09:01:59.773Z,54.20
2019-03-08T09:05:03.631Z,55.00
2019-03-08T09:07:55.471Z,53.80
2019-03-08T09:10:43.923Z,54.60
2019-03-08T09:13:48.057Z,54.10
2019-03-08T09:16:46.500Z,52.70
2019-03-08T09:19:31.261Z,52.00
2019-03-08T09:22:23.099Z,51.60
2019-03-08T09:25:14.562Z,51.50
2019-03-08T09:28:18.988Z,50.00
2019-03-08T09:31:10.894Z,49.60
2019-03-08T09:34:00.868Z,50.20
2019-03-08T09:36:55.823Z,50.50
2019-03-08T09:39:46.382Z,49.50
2019-03-08T09:42:38.576Z,49.30
2019-03-08T09:45:30.009Z,49.90
2019-03-08T09:48:22.513Z,50.10
2019-03-08T09:51:05.908Z,49.70
2019-03-08T09:53:48.512Z,49.80
2019-03-08T09:56:33.399Z,50.10
2019-03-08T09:59:37.776Z,50.50
2019-03-08T10:02:26.925Z,49.90
2019-03-08T10:05:31.235Z,49.90
2019-03-08T10:08:15.489Z,49.20
2019-03-08T10:11:00.768Z,47.90
2019-03-08T10:13:52.740Z,47.90
2019-03-08T10:16:34.264Z,48.40
2019-03-08T10:19:27.011Z,47.10
2019-03-08T10:22:22.291Z,46.90
2019-03-08T10:25:16.893Z,46.70
2019-03-08T10:28:15.243Z,45.70
2019-03-08T10:31:19.529Z,46.20
2019-03-08T10:34:09.306Z,46.60
2019-03-08T10:37:00.098Z,45.30
2019-03-08T10:39:52.134Z,45.20
2019-03-08T10:42:53.785Z,46.30
2019-03-08T10:45:42.016Z,43.30
2019-03-08T10:48:32.798Z,38.10
2019-03-08T10:51:20.364Z,37.80
2019-03-08T10:54:11.535Z,38.40
2019-03-08T10:57:12.594Z,38.30
2019-03-08T11:00:03.877Z,38.20
2019-03-08T11:02:53.843Z,37.10
2019-03-08T11:05:30.280Z,36.40
2019-03-08T11:08:29.577Z,35.60
2019-03-08T11:11:06.579Z,35.40
2019-03-08T11:14:01.477Z,35.90
2019-03-08T11:16:53.396Z,36.00
2019-03-08T11:19:33.264Z,35.50
2019-03-08T11:22:14.368Z,35.90
2019-03-08T11:25:08.485Z,35.10
2019-03-08T11:27:58.283Z,36.50
2019-03-08T11:30:53.804Z,36.60
2019-03-08T11:33:41.123Z,36.70
2019-03-08T11:36:38.034Z,36.90
2019-03-08T11:39:37.455Z,35.90
2019-03-08T11:42:21.783Z,35.70
2019-03-08T11:45:07.342Z,35.30
2019-03-08T11:47:51.524Z,35.10
2019-03-08T11:51:14.125Z,35.90
2019-03-08T11:54:03.025Z,36.00
2019-03-08T11:57:01.972Z,36.30
2019-03-08T12:00:03.162Z,36.30
2019-03-08T12:02:53.882Z,35.40
2019-03-08T12:05:54.789Z,35.60
2019-03-08T12:08:40.270Z,37.10
2019-03-08T12:11:37.940Z,36.10
2019-03-08T12:14:30.092Z,36.80
2019-03-08T12:17:22.368Z,34.80
2019-03-08T12:20:03.671Z,35.70
2019-03-08T12:23:14.088Z,35.20
2019-03-08T12:26:06.563Z,35.70
2019-03-08T12:28:49.569Z,36.10
2019-03-08T12:31:45.047Z,36.40
2019-03-08T12:34:37.296Z,36.40
2019-03-08T12:37:25.332Z,36.60
2019-03-08T12:40:16.426Z,35.20
2019-03-08T12:43:14.593Z,34.40
2019-03-08T12:45:54.361Z,34.90
2019-03-08T12:48:52.015Z,35.10
2019-03-08T12:51:56.491Z,35.10
2019-03-08T12:54:51.264Z,35.80
2019-03-08T12:57:42.603Z,35.30
2019-03-08T13:00:51.915Z,34.90
2019-03-08T13:03:58.955Z,34.30
2019-03-08T13:07:00.529Z,34.50
2019-03-08T13:09:47.515Z,34.60
2019-03-08T13:12:21.180Z,35.40
2019-03-08T13:14:54.968Z,35.40
2019-03-08T13:17:28.256Z,34.50
2019-03-08T13:20:01.203Z,35.10
2019-03-08T13:22:34.644Z,35.30
2019-03-08T13:25:08.523Z,35.40
2019-03-08T13:27:41.725Z,35.50
2019-03-08T13:30:19.879Z,35.10
2019-03-08T13:32:53.455Z,34.40
2019-03-08T13:35:27.088Z,34.60
2019-03-08T13:38:00.481Z,35.00
2019-03-08T13:40:34.015Z,34.60
2019-03-08T13:43:07.411Z,35.20
2019-03-08T13:45:40.849Z,35.10
2019-03-08T13:48:16.727Z,35.40
2019-03-08T13:50:50.340Z,34.80
2019-03-08T13:53:34.623Z,35.20
2019-03-08T13:56:11.481Z,35.70
2019-03-08T13:58:45.183Z,35.20
2019-03-08T14:01:18.689Z,35.70
2019-03-08T14:03:52.400Z,35.00
2019-03-08T14:06:28.326Z,34.70
2019-03-08T14:09:02.273Z,34.40
2019-03-08T14:11:35.822Z,34.50
2019-03-08T14:14:09.129Z,35.50
2019-03-08T14:16:42.242Z,36.10
2019-03-08T14:19:15.490Z,34.50
2019-03-08T14:21:48.926Z,34.60
2019-03-08T14:24:22.496Z,34.20
2019-03-08T14:26:55.600Z,34.30
2019-03-08T14:29:28.705Z,35.30
2019-03-08T14:32:09.081Z,34.70
2019-03-08T14:34:42.254Z,33.60
2019-03-08T14:37:16.189Z,34.20
2019-03-08T14:40:05.446Z,34.80
2019-03-08T14:42:50.262Z,34.70
2019-03-08T14:45:52.055Z,34.50
2019-03-08T14:48:25.309Z,34.30
2019-03-08T14:50:58.368Z,34.40
2019-03-08T14:53:32.868Z,34.60
2019-03-08T14:56:06.953Z,35.10
2019-03-08T14:58:41.240Z,36.70
2019-03-08T15:01:14.541Z,37.80
2019-03-08T15:03:48.156Z,37.80
2019-03-08T15:06:21.455Z,37.50
2019-03-08T15:08:55.941Z,37.50
2019-03-08T15:11:29.549Z,37.80
2019-03-08T15:14:02.882Z,37.80
2019-03-08T15:16:39.191Z,38.20
2019-03-08T15:19:11.641Z,38.30
2019-03-08T15:21:48.583Z,38.40
2019-03-08T15:24:20.022Z,38.40
2019-03-08T15:26:53.366Z,38.80
2019-03-08T15:29:26.428Z,39.10
2019-03-08T15:32:00.046Z,39.30
2019-03-08T15:34:33.974Z,39.90
2019-03-08T15:37:06.944Z,40.40
2019-03-08T15:39:40.501Z,40.20
2019-03-08T15:42:13.721Z,40.90
2019-03-08T15:44:47.222Z,40.70
2019-03-08T15:47:23.888Z,41.20
2019-03-08T15:49:58.468Z,41.30
2019-03-08T15:52:31.753Z,42.10
2019-03-08T15:55:05.968Z,41.50
2019-03-08T15:57:39.552Z,41.30
2019-03-08T16:00:18.297Z,41.30
2019-03-08T16:02:51.798Z,41.20
2019-03-08T16:05:28.212Z,41.60
2019-03-08T16:08:01.801Z,42.60
2019-03-08T16:10:35.464Z,42.40
2019-03-08T16:13:08.335Z,41.40
2019-03-08T16:15:41.094Z,41.40
2019-03-08T16:18:13.850Z,41.20
2019-03-08T16:20:47.308Z,42.40
2019-03-08T16:23:21.282Z,41.80
2019-03-08T16:25:54.691Z,42.80
2019-03-08T16:28:28.259Z,42.70
2019-03-08T16:31:35.370Z,42.70
2019-03-08T16:34:09.741Z,43.10
2019-03-08T16:37:00.461Z,43.40
2019-03-08T16:39:50.607Z,43.70
2019-03-08T16:42:42.289Z,43.90
2019-03-08T16:45:43.070Z,45.10
2019-03-08T16:48:23.799Z,44.80
2019-03-08T16:51:07.712Z,44.60
2019-03-08T16:54:06.311Z,44.50
2019-03-08T16:57:16.632Z,44.70
2019-03-08T17:00:00.603Z,44.90
2019-03-08T17:02:48.732Z,45.20
2019-03-08T17:05:43.539Z,45.60
2019-03-08T17:08:45.471Z,45.90
2019-03-08T17:11:53.234Z,46.10
2019-03-08T17:14:33.399Z,46.80
2019-03-08T17:17:16.638Z,47.30
2019-03-08T17:20:08.349Z,48.00
2019-03-08T17:23:03.430Z,48.40
2019-03-08T17:25:43.068Z,48.60
2019-03-08T17:28:35.150Z,48.70
2019-03-08T17:31:20.423Z,49.00
2019-03-08T17:34:11.692Z,49.30
2019-03-08T17:37:06.777Z,49.70
2019-03-08T17:39:58.913Z,49.90
2019-03-08T17:42:41.743Z,50.40
2019-03-08T17:45:33.855Z,50.50
2019-03-08T17:48:24.958Z,51.00
2019-03-08T17:51:12.885Z,50.90
2019-03-08T17:54:05.233Z,51.10
2019-03-08T17:57:00.536Z,51.40
2019-03-08T18:00:01.763Z,51.60
2019-03-08T18:02:40.996Z,51.90
2019-03-08T18:05:32.699Z,52.30
2019-03-08T18:08:28.196Z,52.80
2019-03-08T18:11:31.983Z,52.70
2019-03-08T18:14:22.891Z,53.10
2019-03-08T18:17:17.987Z,53.30
2019-03-08T18:20:19.231Z,53.60
2019-03-08T18:23:11.448Z,53.90
2019-03-08T18:25:57.219Z,54.10
2019-03-08T18:28:45.480Z,54.30
2019-03-08T18:31:40.849Z,54.80
2019-03-08T18:34:29.185Z,55.20
2019-03-08T18:37:24.106Z,55.20
2019-03-08T18:40:14.319Z,55.20
2019-03-08T18:42:56.390Z,55.40
2019-03-08T18:45:54.550Z,55.40
2019-03-08T18:48:36.751Z,55.30
2019-03-08T18:51:31.777Z,55.50
2019-03-08T18:54:26.617Z,55.40
2019-03-08T18:57:31.678Z,55.90
2019-03-08T19:00:33.792Z,56.00
2019-03-08T19:03:29.286Z,56.90
2019-03-08T19:06:21.313Z,57.60
2019-03-08T19:09:07.031Z,57.00
2019-03-08T19:12:06.961Z,57.00
2019-03-08T19:15:01.892Z,57.90
2019-03-08T19:17:53.023Z,58.20
2019-03-08T19:20:47.155Z,58.70
2019-03-08T19:23:32.562Z,58.70
2019-03-08T19:26:22.772Z,59.30
2019-03-08T19:29:16.351Z,59.50
2019-03-08T19:32:07.710Z,59.90
2019-03-08T19:34:57.952Z,60.10
2019-03-08T19:37:49.161Z,60.50
2019-03-08T19:40:39.259Z,60.70
2019-03-08T19:43:29.576Z,59.90
2019-03-08T19:46:22.429Z,60.30
2019-03-08T19:49:09.064Z,62.70
2019-03-08T19:52:08.510Z,61.20
2019-03-08T19:55:07.226Z,60.80
2019-03-08T19:58:05.592Z,60.40
2019-03-08T20:01:13.409Z,62.70
2019-03-08T20:04:15.967Z,61.90
2019-03-08T20:07:09.719Z,61.40
2019-03-08T20:10:05.188Z,63.40
2019-03-08T20:12:45.157Z,63.00
2019-03-08T20:15:52.347Z,61.00
2019-03-08T20:18:36.946Z,59.90
2019-03-08T20:21:32.015Z,60.30
2019-03-08T20:24:22.978Z,60.60
2019-03-08T20:27:18.599Z,61.00
2019-03-08T20:30:17.101Z,61.10
2019-03-08T20:33:27.416Z,61.00
2019-03-08T20:36:14.754Z,61.20
2019-03-08T20:39:19.633Z,61.30
2019-03-08T20:42:14.585Z,61.40
2019-03-08T20:44:55.797Z,62.10
2019-03-08T20:47:31.192Z,62.40
2019-03-08T20:50:07.734Z,63.10
2019-03-08T20:52:41.273Z,63.10
2019-03-08T20:55:14.688Z,62.90
2019-03-08T20:57:47.837Z,63.30
2019-03-08T21:00:21.682Z,63.80
2019-03-08T21:02:55.063Z,64.10
2019-03-08T21:05:29.163Z,64.50
2019-03-08T21:08:02.507Z,65.30
2019-03-08T21:10:36.128Z,65.50
2019-03-08T21:13:09.672Z,65.40
2019-03-08T21:15:43.109Z,65.70
2019-03-08T21:18:16.486Z,65.90
2019-03-08T21:20:50.773Z,67.60
2019-03-08T21:23:24.599Z,70.10
2019-03-08T21:26:02.131Z,66.80
2019-03-08T21:28:35.817Z,66.00
2019-03-08T21:31:09.351Z,65.10
2019-03-08T21:33:43.581Z,64.50
2019-03-08T21:36:17.475Z,64.80
2019-03-08T21:38:51.740Z,65.40
2019-03-08T21:41:25.250Z,65.20
2019-03-08T21:43:58.949Z,65.00
2019-03-08T21:46:31.698Z,65.00
2019-03-08T21:49:05.018Z,65.30
2019-03-08T21:51:37.857Z,65.50
2019-03-08T21:54:11.169Z,66.00
2019-03-08T21:56:44.336Z,66.00
2019-03-08T21:59:17.417Z,65.60
2019-03-08T22:01:50.928Z,65.80
2019-03-08T22:04:49.151Z,65.30
2019-03-08T22:07:22.407Z,65.30
2019-03-08T22:10:20.615Z,65.90
2019-03-08T22:12:53.796Z,66.10
2019-03-08T22:15:26.886Z,66.40
2019-03-08T22:17:59.979Z,66.00
2019-03-08T22:20:33.063Z,65.40
2019-03-08T22:23:06.426Z,65.40
2019-03-08T22:25:40.168Z,66.50
2019-03-08T22:28:13.321Z,65.60
2019-03-08T22:30:46.696Z,65.70
2019-03-08T22:33:20.100Z,65.00
2019-03-08T22:35:53.218Z,64.90
2019-03-08T22:38:26.309Z,64.80
2019-03-08T22:40:59.598Z,64.20
2019-03-08T22:43:32.810Z,64.30
2019-03-08T22:46:06.020Z,64.50
2019-03-08T22:48:39.314Z,64.90
2019-03-08T22:51:12.400Z,65.00
2019-03-08T22:53:44.956Z,65.40
2019-03-08T22:56:18.384Z,65.70
2019-03-08T22:58:51.876Z,66.00
2019-03-08T23:01:26.930Z,66.40
2019-03-08T23:03:59.911Z,67.30
2019-03-08T23:06:33.088Z,69.20
2019-03-08T23:09:09.447Z,70.20
2019-03-08T23:11:42.855Z,70.60
2019-03-08T23:14:18.148Z,69.70
2019-03-08T23:16:52.036Z,68.70
2019-03-08T23:19:25.432Z,67.90
2019-03-08T23:21:58.797Z,66.40
2019-03-08T23:24:32.070Z,65.20
2019-03-08T23:27:12.404Z,64.50
2019-03-08T23:29:52.391Z,64.10
2019-03-08T23:32:29.316Z,64.10
2019-03-08T23:35:02.386Z,64.60
2019-03-08T23:37:35.467Z,64.80
2019-03-08T23:40:09.426Z,64.70
2019-03-08T23:42:42.761Z,65.00
2019-03-08T23:45:16.214Z,65.00
2019-03-08T23:47:49.592Z,65.60
2019-03-08T23:50:23.014Z,66.40
2019-03-08T23:52:56.283Z,67.00
2019-03-08T23:55:29.403Z,68.20
2019-03-08T23:58:02.719Z,68.60
